sensor_id;sensor_type;location;lat;lon;timestamp;temperature;humidity
20068;DHT22;10194;50.824;7.134;2023-07-31T00:00:32;17.30;99.90
20068;DHT22;10194;50.824;7.134;2023-07-31T00:02:57;17.30;99.90
20068;DHT22;10194;50.824;7.134;2023-07-31T00:05:23;17.40;99.90
20068;DHT22;10194;50.824;7.134;2023-07-31T00:07:49;17.40;99.90
20068;DHT22;10194;50.824;7.134;2023-07-31T00:10:15;17.40;99.90
20068;DHT22;10194;50.824;7.134;2023-07-31T00:12:43;17.50;99.90
20068;DHT22;10194;50.824;7.134;2023-07-31T00:15:14;17.50;99.90
20068;DHT22;10194;50.824;7.134;2023-07-31T00:17:43;17.40;99.90
20068;DHT22;10194;50.824;7.134;2023-07-31T00:20:09;17.40;99.90
20068;DHT22;10194;50.824;7.134;2023-07-31T00:22:38;17.30;99.90
20068;DHT22;10194;50.824;7.134;2023-07-31T00:25:04;17.30;99.90
20068;DHT22;10194;50.824;7.134;2023-07-31T00:27:32;17.30;99.90
20068;DHT22;10194;50.824;7.134;2023-07-31T00:29:58;17.30;99.90
20068;DHT22;10194;50.824;7.134;2023-07-31T00:32:23;17.40;99.90
20068;DHT22;10194;50.824;7.134;2023-07-31T00:34:49;17.40;99.90
20068;DHT22;10194;50.824;7.134;2023-07-31T00:37:18;17.40;99.90
20068;DHT22;10194;50.824;7.134;2023-07-31T00:39:44;17.60;99.90
20068;DHT22;10194;50.824;7.134;2023-07-31T00:42:13;17.60;99.90
20068;DHT22;10194;50.824;7.134;2023-07-31T00:44:41;17.80;99.90
20068;DHT22;10194;50.824;7.134;2023-07-31T00:47:07;17.90;99.90
20068;DHT22;10194;50.824;7.134;2023-07-31T00:49:33;17.90;99.90
20068;DHT22;10194;50.824;7.134;2023-07-31T00:51:59;17.90;99.90
20068;DHT22;10194;50.824;7.134;2023-07-31T00:54:25;17.90;99.90
20068;DHT22;10194;50.824;7.134;2023-07-31T00:56:53;18.00;99.90
20068;DHT22;10194;50.824;7.134;2023-07-31T00:59:19;18.00;99.90
20068;DHT22;10194;50.824;7.134;2023-07-31T01:01:46;18.00;99.90
20068;DHT22;10194;50.824;7.134;2023-07-31T01:04:12;18.00;99.90
20068;DHT22;10194;50.824;7.134;2023-07-31T01:07:01;18.10;99.90
20068;DHT22;10194;50.824;7.134;2023-07-31T01:09:57;18.10;99.90
20068;DHT22;10194;50.824;7.134;2023-07-31T01:12:31;18.10;99.90
20068;DHT22;10194;50.824;7.134;2023-07-31T01:15:06;18.10;99.90
20068;DHT22;10194;50.824;7.134;2023-07-31T01:17:36;18.00;99.90
20068;DHT22;10194;50.824;7.134;2023-07-31T01:20:11;18.10;99.90
20068;DHT22;10194;50.824;7.134;2023-07-31T01:25:50;18.00;99.90
20068;DHT22;10194;50.824;7.134;2023-07-31T01:31:07;18.10;99.90
20068;DHT22;10194;50.824;7.134;2023-07-31T01:33:36;18.10;99.90
20068;DHT22;10194;50.824;7.134;2023-07-31T01:36:03;18.00;99.90
20068;DHT22;10194;50.824;7.134;2023-07-31T01:38:29;18.00;99.90
20068;DHT22;10194;50.824;7.134;2023-07-31T01:40:55;17.90;99.90
20068;DHT22;10194;50.824;7.134;2023-07-31T01:43:21;17.90;99.90
20068;DHT22;10194;50.824;7.134;2023-07-31T01:45:47;17.90;99.90
20068;DHT22;10194;50.824;7.134;2023-07-31T01:48:12;17.90;99.90
20068;DHT22;10194;50.824;7.134;2023-07-31T01:50:38;17.90;99.90
20068;DHT22;10194;50.824;7.134;2023-07-31T01:53:04;17.90;99.90
20068;DHT22;10194;50.824;7.134;2023-07-31T01:55:30;17.80;99.90
20068;DHT22;10194;50.824;7.134;2023-07-31T01:57:55;17.80;99.90
20068;DHT22;10194;50.824;7.134;2023-07-31T02:00:21;17.80;99.90
20068;DHT22;10194;50.824;7.134;2023-07-31T02:02:47;17.70;99.90
20068;DHT22;10194;50.824;7.134;2023-07-31T02:05:12;17.70;99.90
20068;DHT22;10194;50.824;7.134;2023-07-31T02:07:38;17.70;99.90
20068;DHT22;10194;50.824;7.134;2023-07-31T02:10:04;17.70;99.90
20068;DHT22;10194;50.824;7.134;2023-07-31T02:12:30;17.60;99.90
20068;DHT22;10194;50.824;7.134;2023-07-31T02:14:57;17.60;99.90
20068;DHT22;10194;50.824;7.134;2023-07-31T02:17:23;17.60;99.90
20068;DHT22;10194;50.824;7.134;2023-07-31T02:19:48;17.60;99.90
20068;DHT22;10194;50.824;7.134;2023-07-31T02:22:14;17.50;99.90
20068;DHT22;10194;50.824;7.134;2023-07-31T02:24:40;17.50;99.90
20068;DHT22;10194;50.824;7.134;2023-07-31T02:27:06;17.60;99.90
20068;DHT22;10194;50.824;7.134;2023-07-31T02:29:32;17.50;99.90
20068;DHT22;10194;50.824;7.134;2023-07-31T02:31:57;17.50;99.90
20068;DHT22;10194;50.824;7.134;2023-07-31T02:34:23;17.50;99.90
20068;DHT22;10194;50.824;7.134;2023-07-31T02:36:49;17.60;99.90
20068;DHT22;10194;50.824;7.134;2023-07-31T02:39:14;17.60;99.90
20068;DHT22;10194;50.824;7.134;2023-07-31T02:41:40;17.60;99.90
20068;DHT22;10194;50.824;7.134;2023-07-31T02:44:06;17.60;99.90
20068;DHT22;10194;50.824;7.134;2023-07-31T02:46:32;17.60;99.90
20068;DHT22;10194;50.824;7.134;2023-07-31T02:48:57;17.60;99.90
20068;DHT22;10194;50.824;7.134;2023-07-31T02:51:23;17.60;99.90
20068;DHT22;10194;50.824;7.134;2023-07-31T02:53:49;17.70;99.90
20068;DHT22;10194;50.824;7.134;2023-07-31T02:56:15;17.60;99.90
20068;DHT22;10194;50.824;7.134;2023-07-31T02:58:40;17.60;99.90
20068;DHT22;10194;50.824;7.134;2023-07-31T03:01:06;17.60;99.90
20068;DHT22;10194;50.824;7.134;2023-07-31T03:03:32;17.60;99.90
20068;DHT22;10194;50.824;7.134;2023-07-31T03:05:58;17.60;99.90
20068;DHT22;10194;50.824;7.134;2023-07-31T03:08:24;17.60;99.90
20068;DHT22;10194;50.824;7.134;2023-07-31T03:10:50;17.70;99.90
20068;DHT22;10194;50.824;7.134;2023-07-31T03:13:16;17.70;99.90
20068;DHT22;10194;50.824;7.134;2023-07-31T03:15:44;17.70;99.90
20068;DHT22;10194;50.824;7.134;2023-07-31T03:18:10;17.70;99.90
20068;DHT22;10194;50.824;7.134;2023-07-31T03:20:36;17.70;99.90
20068;DHT22;10194;50.824;7.134;2023-07-31T03:23:01;17.80;99.90
20068;DHT22;10194;50.824;7.134;2023-07-31T03:25:27;17.70;99.90
20068;DHT22;10194;50.824;7.134;2023-07-31T03:27:53;17.70;99.90
20068;DHT22;10194;50.824;7.134;2023-07-31T03:30:19;17.70;99.90
20068;DHT22;10194;50.824;7.134;2023-07-31T03:32:44;17.70;99.90
20068;DHT22;10194;50.824;7.134;2023-07-31T03:35:10;17.70;99.90
20068;DHT22;10194;50.824;7.134;2023-07-31T03:37:36;17.70;99.90
20068;DHT22;10194;50.824;7.134;2023-07-31T03:40:02;17.70;99.90
20068;DHT22;10194;50.824;7.134;2023-07-31T03:42:28;17.70;99.90
20068;DHT22;10194;50.824;7.134;2023-07-31T03:44:53;17.70;99.90
20068;DHT22;10194;50.824;7.134;2023-07-31T03:47:19;17.70;99.90
20068;DHT22;10194;50.824;7.134;2023-07-31T03:49:45;17.70;99.90
20068;DHT22;10194;50.824;7.134;2023-07-31T03:52:10;17.80;99.90
20068;DHT22;10194;50.824;7.134;2023-07-31T03:54:36;17.80;99.90
20068;DHT22;10194;50.824;7.134;2023-07-31T03:57:02;17.80;99.90
20068;DHT22;10194;50.824;7.134;2023-07-31T03:59:28;17.80;99.90
20068;DHT22;10194;50.824;7.134;2023-07-31T04:01:54;17.80;99.90
20068;DHT22;10194;50.824;7.134;2023-07-31T04:04:19;17.80;99.90
20068;DHT22;10194;50.824;7.134;2023-07-31T04:06:45;17.80;99.90
20068;DHT22;10194;50.824;7.134;2023-07-31T04:09:11;17.90;99.90
20068;DHT22;10194;50.824;7.134;2023-07-31T04:11:37;17.80;99.90
20068;DHT22;10194;50.824;7.134;2023-07-31T04:14:04;17.80;99.90
20068;DHT22;10194;50.824;7.134;2023-07-31T04:16:30;17.80;99.90
20068;DHT22;10194;50.824;7.134;2023-07-31T04:18:56;17.80;99.90
20068;DHT22;10194;50.824;7.134;2023-07-31T04:21:21;17.80;99.90
20068;DHT22;10194;50.824;7.134;2023-07-31T04:23:47;17.80;99.90
20068;DHT22;10194;50.824;7.134;2023-07-31T04:26:13;17.80;99.90
20068;DHT22;10194;50.824;7.134;2023-07-31T04:28:38;17.80;99.90
20068;DHT22;10194;50.824;7.134;2023-07-31T04:31:04;17.80;99.90
20068;DHT22;10194;50.824;7.134;2023-07-31T04:33:30;17.80;99.90
20068;DHT22;10194;50.824;7.134;2023-07-31T04:35:56;17.80;99.90
20068;DHT22;10194;50.824;7.134;2023-07-31T04:38:22;17.80;99.90
20068;DHT22;10194;50.824;7.134;2023-07-31T04:40:48;17.80;99.90
20068;DHT22;10194;50.824;7.134;2023-07-31T04:43:14;17.80;99.90
20068;DHT22;10194;50.824;7.134;2023-07-31T04:45:44;17.80;99.90
20068;DHT22;10194;50.824;7.134;2023-07-31T04:48:12;17.80;99.90
20068;DHT22;10194;50.824;7.134;2023-07-31T04:50:37;17.80;99.90
20068;DHT22;10194;50.824;7.134;2023-07-31T04:53:03;17.80;99.90
20068;DHT22;10194;50.824;7.134;2023-07-31T04:55:29;17.80;99.90
20068;DHT22;10194;50.824;7.134;2023-07-31T04:57:55;17.80;99.90
20068;DHT22;10194;50.824;7.134;2023-07-31T05:00:20;17.80;99.90
20068;DHT22;10194;50.824;7.134;2023-07-31T05:02:46;17.80;99.90
20068;DHT22;10194;50.824;7.134;2023-07-31T05:05:12;17.90;99.90
20068;DHT22;10194;50.824;7.134;2023-07-31T05:07:38;17.90;99.90
20068;DHT22;10194;50.824;7.134;2023-07-31T05:10:04;18.00;99.90
20068;DHT22;10194;50.824;7.134;2023-07-31T05:12:30;18.00;99.90
20068;DHT22;10194;50.824;7.134;2023-07-31T05:14:55;18.00;99.90
20068;DHT22;10194;50.824;7.134;2023-07-31T05:17:21;18.00;99.90
20068;DHT22;10194;50.824;7.134;2023-07-31T05:19:47;18.00;99.90
20068;DHT22;10194;50.824;7.134;2023-07-31T05:22:12;18.10;99.90
20068;DHT22;10194;50.824;7.134;2023-07-31T05:24:38;18.00;99.90
20068;DHT22;10194;50.824;7.134;2023-07-31T05:27:04;18.10;99.90
20068;DHT22;10194;50.824;7.134;2023-07-31T05:29:30;18.10;99.90
20068;DHT22;10194;50.824;7.134;2023-07-31T05:31:56;18.10;99.90
20068;DHT22;10194;50.824;7.134;2023-07-31T05:34:22;18.10;99.90
20068;DHT22;10194;50.824;7.134;2023-07-31T05:36:47;18.10;99.90
20068;DHT22;10194;50.824;7.134;2023-07-31T05:39:13;18.10;99.90
20068;DHT22;10194;50.824;7.134;2023-07-31T05:41:39;18.20;99.90
20068;DHT22;10194;50.824;7.134;2023-07-31T05:44:05;18.30;99.90
20068;DHT22;10194;50.824;7.134;2023-07-31T05:46:30;18.30;99.90
20068;DHT22;10194;50.824;7.134;2023-07-31T05:48:59;18.30;99.90
20068;DHT22;10194;50.824;7.134;2023-07-31T05:51:26;18.30;99.90
20068;DHT22;10194;50.824;7.134;2023-07-31T05:53:53;18.40;99.90
20068;DHT22;10194;50.824;7.134;2023-07-31T05:56:19;18.30;99.90
20068;DHT22;10194;50.824;7.134;2023-07-31T05:58:45;18.40;99.90
20068;DHT22;10194;50.824;7.134;2023-07-31T06:01:11;18.50;99.90
20068;DHT22;10194;50.824;7.134;2023-07-31T06:03:36;18.50;99.90
20068;DHT22;10194;50.824;7.134;2023-07-31T06:06:02;18.60;99.90
20068;DHT22;10194;50.824;7.134;2023-07-31T06:08:28;18.60;99.90
20068;DHT22;10194;50.824;7.134;2023-07-31T06:10:54;18.70;99.90
20068;DHT22;10194;50.824;7.134;2023-07-31T06:13:20;18.60;99.90
20068;DHT22;10194;50.824;7.134;2023-07-31T06:15:45;18.50;99.90
20068;DHT22;10194;50.824;7.134;2023-07-31T06:18:11;18.60;99.90
20068;DHT22;10194;50.824;7.134;2023-07-31T06:20:41;18.50;99.90
20068;DHT22;10194;50.824;7.134;2023-07-31T06:23:07;18.50;99.90
20068;DHT22;10194;50.824;7.134;2023-07-31T06:25:33;18.50;99.90
20068;DHT22;10194;50.824;7.134;2023-07-31T06:27:59;18.50;99.90
20068;DHT22;10194;50.824;7.134;2023-07-31T06:30:25;18.50;99.90
20068;DHT22;10194;50.824;7.134;2023-07-31T06:32:50;18.50;99.90
20068;DHT22;10194;50.824;7.134;2023-07-31T06:35:16;18.50;99.90
20068;DHT22;10194;50.824;7.134;2023-07-31T06:37:42;18.40;99.90
20068;DHT22;10194;50.824;7.134;2023-07-31T06:40:10;18.30;99.90
20068;DHT22;10194;50.824;7.134;2023-07-31T06:42:36;18.30;99.90
20068;DHT22;10194;50.824;7.134;2023-07-31T06:45:02;18.20;99.90
20068;DHT22;10194;50.824;7.134;2023-07-31T06:47:28;18.20;99.90
20068;DHT22;10194;50.824;7.134;2023-07-31T06:49:55;18.20;99.90
20068;DHT22;10194;50.824;7.134;2023-07-31T06:52:22;18.20;99.90
20068;DHT22;10194;50.824;7.134;2023-07-31T06:55:20;18.20;99.90
20068;DHT22;10194;50.824;7.134;2023-07-31T06:57:48;18.20;99.90
20068;DHT22;10194;50.824;7.134;2023-07-31T07:00:16;18.10;99.90
20068;DHT22;10194;50.824;7.134;2023-07-31T07:02:46;18.10;99.90
20068;DHT22;10194;50.824;7.134;2023-07-31T07:05:16;18.10;99.90
20068;DHT22;10194;50.824;7.134;2023-07-31T07:07:43;18.20;99.90
20068;DHT22;10194;50.824;7.134;2023-07-31T07:10:09;18.20;99.90
20068;DHT22;10194;50.824;7.134;2023-07-31T07:12:35;18.40;99.90
20068;DHT22;10194;50.824;7.134;2023-07-31T07:15:02;18.80;99.90
20068;DHT22;10194;50.824;7.134;2023-07-31T07:17:29;19.60;99.90
20068;DHT22;10194;50.824;7.134;2023-07-31T07:19:59;19.90;99.90
20068;DHT22;10194;50.824;7.134;2023-07-31T07:22:26;19.90;99.90
20068;DHT22;10194;50.824;7.134;2023-07-31T07:24:52;20.20;99.90
20068;DHT22;10194;50.824;7.134;2023-07-31T07:27:18;20.20;99.90
20068;DHT22;10194;50.824;7.134;2023-07-31T07:29:45;20.40;99.90
20068;DHT22;10194;50.824;7.134;2023-07-31T07:32:11;20.30;99.90
20068;DHT22;10194;50.824;7.134;2023-07-31T07:34:38;20.20;99.90
20068;DHT22;10194;50.824;7.134;2023-07-31T07:37:04;19.90;99.90
20068;DHT22;10194;50.824;7.134;2023-07-31T07:39:30;19.80;99.90
20068;DHT22;10194;50.824;7.134;2023-07-31T07:41:55;19.50;99.90
20068;DHT22;10194;50.824;7.134;2023-07-31T07:44:21;19.50;99.90
20068;DHT22;10194;50.824;7.134;2023-07-31T07:46:47;19.40;99.90
20068;DHT22;10194;50.824;7.134;2023-07-31T07:49:13;19.30;99.90
20068;DHT22;10194;50.824;7.134;2023-07-31T07:51:38;19.10;99.90
20068;DHT22;10194;50.824;7.134;2023-07-31T07:54:04;19.00;99.90
20068;DHT22;10194;50.824;7.134;2023-07-31T07:56:30;18.90;99.90
20068;DHT22;10194;50.824;7.134;2023-07-31T07:58:56;18.70;99.90
20068;DHT22;10194;50.824;7.134;2023-07-31T08:01:21;18.70;99.90
20068;DHT22;10194;50.824;7.134;2023-07-31T08:03:47;18.70;99.90
20068;DHT22;10194;50.824;7.134;2023-07-31T08:06:14;18.70;99.90
20068;DHT22;10194;50.824;7.134;2023-07-31T08:08:40;18.60;99.90
20068;DHT22;10194;50.824;7.134;2023-07-31T08:11:06;18.60;99.90
20068;DHT22;10194;50.824;7.134;2023-07-31T08:13:32;18.50;99.90
20068;DHT22;10194;50.824;7.134;2023-07-31T08:15:57;18.50;99.90
20068;DHT22;10194;50.824;7.134;2023-07-31T08:18:23;18.40;99.90
20068;DHT22;10194;50.824;7.134;2023-07-31T08:20:49;18.50;99.90
20068;DHT22;10194;50.824;7.134;2023-07-31T08:23:14;18.50;99.90
20068;DHT22;10194;50.824;7.134;2023-07-31T08:25:40;18.60;99.90
20068;DHT22;10194;50.824;7.134;2023-07-31T08:28:07;18.60;99.90
20068;DHT22;10194;50.824;7.134;2023-07-31T08:30:33;18.60;99.90
20068;DHT22;10194;50.824;7.134;2023-07-31T08:32:59;18.60;99.90
20068;DHT22;10194;50.824;7.134;2023-07-31T08:35:26;18.60;99.90
20068;DHT22;10194;50.824;7.134;2023-07-31T08:37:53;18.60;99.90
20068;DHT22;10194;50.824;7.134;2023-07-31T08:40:19;18.60;99.90
20068;DHT22;10194;50.824;7.134;2023-07-31T08:42:48;18.60;99.90
20068;DHT22;10194;50.824;7.134;2023-07-31T08:45:18;18.50;99.90
20068;DHT22;10194;50.824;7.134;2023-07-31T08:47:47;18.50;99.90
20068;DHT22;10194;50.824;7.134;2023-07-31T08:50:15;18.30;99.90
20068;DHT22;10194;50.824;7.134;2023-07-31T08:52:42;18.20;99.90
20068;DHT22;10194;50.824;7.134;2023-07-31T08:55:09;18.30;99.90
20068;DHT22;10194;50.824;7.134;2023-07-31T08:57:37;18.20;99.90
20068;DHT22;10194;50.824;7.134;2023-07-31T09:00:05;18.00;99.90
20068;DHT22;10194;50.824;7.134;2023-07-31T09:02:41;18.10;99.90
20068;DHT22;10194;50.824;7.134;2023-07-31T09:05:11;18.00;99.90
20068;DHT22;10194;50.824;7.134;2023-07-31T09:07:38;18.10;99.90
20068;DHT22;10194;50.824;7.134;2023-07-31T09:10:05;18.20;99.90
20068;DHT22;10194;50.824;7.134;2023-07-31T09:12:31;18.40;99.90
20068;DHT22;10194;50.824;7.134;2023-07-31T09:14:58;18.50;99.90
20068;DHT22;10194;50.824;7.134;2023-07-31T09:17:31;18.50;99.90
20068;DHT22;10194;50.824;7.134;2023-07-31T09:19:58;18.70;99.90
20068;DHT22;10194;50.824;7.134;2023-07-31T09:22:38;18.70;99.90
20068;DHT22;10194;50.824;7.134;2023-07-31T09:25:25;18.70;99.90
20068;DHT22;10194;50.824;7.134;2023-07-31T09:28:03;18.50;99.90
20068;DHT22;10194;50.824;7.134;2023-07-31T09:30:30;18.50;99.90
20068;DHT22;10194;50.824;7.134;2023-07-31T09:33:06;18.10;99.90
20068;DHT22;10194;50.824;7.134;2023-07-31T09:35:34;18.00;99.90
20068;DHT22;10194;50.824;7.134;2023-07-31T09:38:04;18.00;99.90
20068;DHT22;10194;50.824;7.134;2023-07-31T09:40:32;18.00;99.90
20068;DHT22;10194;50.824;7.134;2023-07-31T09:43:04;18.10;99.90
20068;DHT22;10194;50.824;7.134;2023-07-31T09:45:35;18.10;99.90
20068;DHT22;10194;50.824;7.134;2023-07-31T09:48:02;18.20;99.90
20068;DHT22;10194;50.824;7.134;2023-07-31T09:50:29;18.10;99.90
20068;DHT22;10194;50.824;7.134;2023-07-31T09:52:55;17.90;99.90
20068;DHT22;10194;50.824;7.134;2023-07-31T09:55:21;17.80;99.90
20068;DHT22;10194;50.824;7.134;2023-07-31T09:57:48;17.90;99.90
20068;DHT22;10194;50.824;7.134;2023-07-31T10:00:16;17.90;99.90
20068;DHT22;10194;50.824;7.134;2023-07-31T10:02:46;18.00;99.90
20068;DHT22;10194;50.824;7.134;2023-07-31T10:05:16;18.10;99.90
20068;DHT22;10194;50.824;7.134;2023-07-31T10:07:51;18.10;99.90
20068;DHT22;10194;50.824;7.134;2023-07-31T10:10:21;18.20;99.90
20068;DHT22;10194;50.824;7.134;2023-07-31T10:12:52;18.30;99.90
20068;DHT22;10194;50.824;7.134;2023-07-31T10:15:18;18.20;99.90
20068;DHT22;10194;50.824;7.134;2023-07-31T10:17:47;18.20;99.90
20068;DHT22;10194;50.824;7.134;2023-07-31T10:20:14;18.20;99.90
20068;DHT22;10194;50.824;7.134;2023-07-31T10:22:44;18.20;99.90
20068;DHT22;10194;50.824;7.134;2023-07-31T10:25:15;18.20;99.90
20068;DHT22;10194;50.824;7.134;2023-07-31T10:27:41;18.40;99.90
20068;DHT22;10194;50.824;7.134;2023-07-31T10:30:29;18.40;99.90
20068;DHT22;10194;50.824;7.134;2023-07-31T10:32:57;18.60;99.90
20068;DHT22;10194;50.824;7.134;2023-07-31T10:35:23;18.70;99.90
20068;DHT22;10194;50.824;7.134;2023-07-31T10:37:48;18.90;99.90
20068;DHT22;10194;50.824;7.134;2023-07-31T10:40:20;18.90;99.90
20068;DHT22;10194;50.824;7.134;2023-07-31T10:42:52;18.90;99.90
20068;DHT22;10194;50.824;7.134;2023-07-31T10:45:44;18.70;99.90
20068;DHT22;10194;50.824;7.134;2023-07-31T10:48:14;19.00;99.90
20068;DHT22;10194;50.824;7.134;2023-07-31T10:50:48;19.20;99.90
20068;DHT22;10194;50.824;7.134;2023-07-31T10:53:30;19.20;99.90
20068;DHT22;10194;50.824;7.134;2023-07-31T10:56:07;19.40;99.90
20068;DHT22;10194;50.824;7.134;2023-07-31T10:58:34;19.50;99.90
20068;DHT22;10194;50.824;7.134;2023-07-31T11:01:03;19.60;99.90
20068;DHT22;10194;50.824;7.134;2023-07-31T11:03:48;19.60;99.90
20068;DHT22;10194;50.824;7.134;2023-07-31T11:06:17;19.70;99.90
20068;DHT22;10194;50.824;7.134;2023-07-31T11:08:45;19.80;99.90
20068;DHT22;10194;50.824;7.134;2023-07-31T11:11:16;19.90;99.90
20068;DHT22;10194;50.824;7.134;2023-07-31T11:13:52;19.90;99.90
20068;DHT22;10194;50.824;7.134;2023-07-31T11:16:23;19.90;99.90
20068;DHT22;10194;50.824;7.134;2023-07-31T11:18:51;20.00;99.90
20068;DHT22;10194;50.824;7.134;2023-07-31T11:21:23;20.00;99.90
20068;DHT22;10194;50.824;7.134;2023-07-31T11:23:51;20.10;99.90
20068;DHT22;10194;50.824;7.134;2023-07-31T11:26:18;20.10;99.90
20068;DHT22;10194;50.824;7.134;2023-07-31T11:28:47;20.20;99.90
20068;DHT22;10194;50.824;7.134;2023-07-31T11:31:13;20.30;99.90
20068;DHT22;10194;50.824;7.134;2023-07-31T11:33:39;20.10;99.90
20068;DHT22;10194;50.824;7.134;2023-07-31T11:36:05;20.00;99.90
20068;DHT22;10194;50.824;7.134;2023-07-31T11:38:33;19.90;99.90
20068;DHT22;10194;50.824;7.134;2023-07-31T11:41:00;19.80;99.90
20068;DHT22;10194;50.824;7.134;2023-07-31T11:43:34;19.80;99.90
20068;DHT22;10194;50.824;7.134;2023-07-31T11:46:02;19.90;99.90
20068;DHT22;10194;50.824;7.134;2023-07-31T11:48:37;20.00;99.90
20068;DHT22;10194;50.824;7.134;2023-07-31T11:51:05;20.10;99.90
20068;DHT22;10194;50.824;7.134;2023-07-31T11:53:47;20.30;99.90
20068;DHT22;10194;50.824;7.134;2023-07-31T11:56:20;20.60;99.90
20068;DHT22;10194;50.824;7.134;2023-07-31T11:58:50;21.00;99.90
20068;DHT22;10194;50.824;7.134;2023-07-31T12:01:19;21.30;99.90
20068;DHT22;10194;50.824;7.134;2023-07-31T12:03:47;21.60;99.90
20068;DHT22;10194;50.824;7.134;2023-07-31T12:06:13;21.70;99.90
20068;DHT22;10194;50.824;7.134;2023-07-31T12:08:39;21.70;99.90
20068;DHT22;10194;50.824;7.134;2023-07-31T12:11:08;21.70;99.90
20068;DHT22;10194;50.824;7.134;2023-07-31T12:13:36;21.70;99.90
20068;DHT22;10194;50.824;7.134;2023-07-31T12:16:03;21.70;99.90
20068;DHT22;10194;50.824;7.134;2023-07-31T12:18:39;21.70;99.90
20068;DHT22;10194;50.824;7.134;2023-07-31T12:21:07;21.50;99.90
20068;DHT22;10194;50.824;7.134;2023-07-31T12:23:35;21.30;99.90
20068;DHT22;10194;50.824;7.134;2023-07-31T12:26:06;21.20;99.90
20068;DHT22;10194;50.824;7.134;2023-07-31T12:28:36;21.20;99.90
20068;DHT22;10194;50.824;7.134;2023-07-31T12:31:09;21.20;99.90
20068;DHT22;10194;50.824;7.134;2023-07-31T12:33:40;21.20;99.90
20068;DHT22;10194;50.824;7.134;2023-07-31T12:36:12;21.10;99.90
20068;DHT22;10194;50.824;7.134;2023-07-31T12:38:39;21.10;99.90
20068;DHT22;10194;50.824;7.134;2023-07-31T12:41:05;21.00;99.90
20068;DHT22;10194;50.824;7.134;2023-07-31T12:43:35;21.00;99.90
20068;DHT22;10194;50.824;7.134;2023-07-31T12:46:02;21.00;99.90
20068;DHT22;10194;50.824;7.134;2023-07-31T12:48:29;20.90;99.90
20068;DHT22;10194;50.824;7.134;2023-07-31T12:50:55;20.90;99.90
20068;DHT22;10194;50.824;7.134;2023-07-31T12:53:20;21.00;99.90
20068;DHT22;10194;50.824;7.134;2023-07-31T12:55:46;21.00;99.90
20068;DHT22;10194;50.824;7.134;2023-07-31T12:58:12;20.90;99.90
20068;DHT22;10194;50.824;7.134;2023-07-31T13:00:38;20.90;99.90
20068;DHT22;10194;50.824;7.134;2023-07-31T13:03:04;20.90;99.90
20068;DHT22;10194;50.824;7.134;2023-07-31T13:05:30;20.90;99.90
20068;DHT22;10194;50.824;7.134;2023-07-31T13:07:56;20.90;99.90
20068;DHT22;10194;50.824;7.134;2023-07-31T13:10:25;20.90;99.90
20068;DHT22;10194;50.824;7.134;2023-07-31T13:12:54;21.10;99.90
20068;DHT22;10194;50.824;7.134;2023-07-31T13:15:20;21.10;99.90
20068;DHT22;10194;50.824;7.134;2023-07-31T13:17:46;21.40;99.90
20068;DHT22;10194;50.824;7.134;2023-07-31T13:20:12;21.40;99.90
20068;DHT22;10194;50.824;7.134;2023-07-31T13:22:39;21.40;99.90
20068;DHT22;10194;50.824;7.134;2023-07-31T13:25:05;21.40;99.90
20068;DHT22;10194;50.824;7.134;2023-07-31T13:27:32;21.50;99.90
20068;DHT22;10194;50.824;7.134;2023-07-31T13:29:58;21.50;99.90
20068;DHT22;10194;50.824;7.134;2023-07-31T13:32:24;21.30;99.90
20068;DHT22;10194;50.824;7.134;2023-07-31T13:34:50;21.40;99.90
20068;DHT22;10194;50.824;7.134;2023-07-31T13:37:16;21.30;99.90
20068;DHT22;10194;50.824;7.134;2023-07-31T13:39:42;21.40;99.90
20068;DHT22;10194;50.824;7.134;2023-07-31T13:42:09;21.70;99.90
20068;DHT22;10194;50.824;7.134;2023-07-31T13:44:38;21.90;99.90
20068;DHT22;10194;50.824;7.134;2023-07-31T13:47:04;21.90;99.90
20068;DHT22;10194;50.824;7.134;2023-07-31T13:49:30;22.00;99.90
20068;DHT22;10194;50.824;7.134;2023-07-31T13:51:57;22.10;99.90
20068;DHT22;10194;50.824;7.134;2023-07-31T13:54:23;22.20;99.90
20068;DHT22;10194;50.824;7.134;2023-07-31T13:56:51;22.40;99.90
20068;DHT22;10194;50.824;7.134;2023-07-31T13:59:17;22.40;99.90
20068;DHT22;10194;50.824;7.134;2023-07-31T14:01:44;22.50;99.90
20068;DHT22;10194;50.824;7.134;2023-07-31T14:04:10;22.70;99.90
20068;DHT22;10194;50.824;7.134;2023-07-31T14:06:36;22.80;99.90
20068;DHT22;10194;50.824;7.134;2023-07-31T14:09:02;22.80;99.90
20068;DHT22;10194;50.824;7.134;2023-07-31T14:11:28;22.80;99.90
20068;DHT22;10194;50.824;7.134;2023-07-31T14:13:55;22.70;99.90
20068;DHT22;10194;50.824;7.134;2023-07-31T14:16:22;22.40;99.90
20068;DHT22;10194;50.824;7.134;2023-07-31T14:18:48;22.40;99.90
20068;DHT22;10194;50.824;7.134;2023-07-31T14:21:14;22.20;99.90
20068;DHT22;10194;50.824;7.134;2023-07-31T14:23:40;22.10;99.90
20068;DHT22;10194;50.824;7.134;2023-07-31T14:26:06;21.80;99.90
20068;DHT22;10194;50.824;7.134;2023-07-31T14:28:32;21.70;99.90
20068;DHT22;10194;50.824;7.134;2023-07-31T14:30:58;21.50;99.90
20068;DHT22;10194;50.824;7.134;2023-07-31T14:33:24;21.40;99.90
20068;DHT22;10194;50.824;7.134;2023-07-31T14:35:50;21.30;99.90
20068;DHT22;10194;50.824;7.134;2023-07-31T14:38:16;21.20;99.90
20068;DHT22;10194;50.824;7.134;2023-07-31T14:40:42;21.20;99.90
20068;DHT22;10194;50.824;7.134;2023-07-31T14:43:07;21.20;99.90
20068;DHT22;10194;50.824;7.134;2023-07-31T14:45:33;21.30;99.90
20068;DHT22;10194;50.824;7.134;2023-07-31T14:48:01;21.30;99.90
20068;DHT22;10194;50.824;7.134;2023-07-31T14:50:29;21.20;99.90
20068;DHT22;10194;50.824;7.134;2023-07-31T14:52:55;21.10;99.90
20068;DHT22;10194;50.824;7.134;2023-07-31T14:55:20;21.00;99.90
20068;DHT22;10194;50.824;7.134;2023-07-31T14:57:46;20.90;99.90
20068;DHT22;10194;50.824;7.134;2023-07-31T15:00:13;20.90;99.90
20068;DHT22;10194;50.824;7.134;2023-07-31T15:02:39;20.80;99.90
20068;DHT22;10194;50.824;7.134;2023-07-31T15:05:06;20.80;99.90
20068;DHT22;10194;50.824;7.134;2023-07-31T15:07:33;20.80;99.90
20068;DHT22;10194;50.824;7.134;2023-07-31T15:09:59;20.80;99.90
20068;DHT22;10194;50.824;7.134;2023-07-31T15:12:26;20.70;99.90
20068;DHT22;10194;50.824;7.134;2023-07-31T15:14:53;20.70;99.90
20068;DHT22;10194;50.824;7.134;2023-07-31T15:17:18;20.70;99.90
20068;DHT22;10194;50.824;7.134;2023-07-31T15:19:44;20.60;99.90
20068;DHT22;10194;50.824;7.134;2023-07-31T15:22:10;20.60;99.90
20068;DHT22;10194;50.824;7.134;2023-07-31T15:24:36;20.60;99.90
20068;DHT22;10194;50.824;7.134;2023-07-31T15:27:02;20.60;99.90
20068;DHT22;10194;50.824;7.134;2023-07-31T15:29:28;20.50;99.90
20068;DHT22;10194;50.824;7.134;2023-07-31T15:31:55;20.50;99.90
20068;DHT22;10194;50.824;7.134;2023-07-31T15:34:21;20.60;99.90
20068;DHT22;10194;50.824;7.134;2023-07-31T15:36:47;20.60;99.90